Roscoe, MO (64781)

4:59 AM CDT on August 02, 2014 (GMT -0500)
Clinton Memorial (KGLY) Elev 823 ft | 38.36 °N, 93.68 °W | Change Station

Current weather conditions updated 4 minutes ago

Clear
Clear
61 °F
Feels Like 61 °F
N
0
Wind Variable Wind from North

Today is forecast to be Warmer than yesterday.

Today
High -- | Low -- °F
--% Chance of Precip.
Yesterday
High -- | Low -- °F
Precip. -- in
6:19 AM 8:23 PM
Waxing Crescent, 34% visible
Pressure 30.10 in
Visibility 6.0 miles
Clouds Clear
Dew Point 59 °F
Humidity 94%
Rainfall 0.00 in
Snow Depth Not available.
UV 0 out of 12
Pollen 6.60 out of 12
Air Quality Not available.
Flu Activity Not available.
METAR KGLY 020955Z AUTO 00000KT 6SM BR CLR 16/15 A3010 RMK AO2

More Conditions Fewer Conditions

Pressure 30.10 in
Visibility 6.0 miles
Clouds Clear
Dew Point 59 °F
Humidity 94%
Rainfall 0.00 in
Snow Depth Not available.
UV 0 out of 12
Pollen 6.60 out of 12
Air Quality Not available.
Flu Activity Not available.
METAR KGLY 020955Z AUTO 00000KT 6SM BR CLR 16/15 A3010 RMK AO2

More Conditions Fewer Conditions

10-Day Weather Forecast

Almanac

Astronomy

Aug. 02, 2014 Rise Set
Actual Time 6:19 AM CDT 8:23 PM CDT
Civil Twilight 5:50 AM CDT 8:52 PM CDT
Nautical Twilight 5:14 AM CDT 9:27 PM CDT
Astronomical Twilight 4:35 AM CDT 10:06 PM CDT
Moon 12:34 PM CDT 11:49 PM CDT
Length of Visible Light 15h 02m
Length of Day
14h 04m
Tomorrow will be 1m 53s shorter.
Waxing Crescent, 34% of the Moon is Illuminated
Today
Waxing Crescent
Aug 3
First Quarter
Aug 10
Full
Aug 17
Last Quarter
Aug 25
New

Today's Extremes

State Highs State Lows

Community

WunderPhotos

Upload Photos

1,739,852 photos uploaded!

Nearby

Snow Depth

Station Depth Elevation
No new snow has been reported.

Earthquake Activity

City Distance Mag. Time & Date
No recent earthquake activity has been reported nearby.
Minimum magnitude displayed is 2.5.

Coastal Water Temperatures

Place Temperature
No Stations Reporting

Nearby Weather Stations

There are no personal weather stations in this area.